Airfield :
LOGIN :

Register | Disclaimer

   EN    FR    IT 

 










Legend :    VFR   Marginal VFR   IFR   Intensive IFR   Very Intensive IFR
Visi :
Ceiling :
>= 8 km
>= 3000ft
5 to 8 km
1000 to 3000 ft
1500m to 5 km
500 to 1000 ft
800 to 1500m
200 to 500 ft
< 800m
< 200 ft
Symbols :   Thunderstorms  Fog  Heavy snow  Heavy precipitations  Wind > 20 kt
SIGMETs :     Misc.  Thunderstorms  Icing  Turbulence  Mountain Waves  Volcanic Ashes






- Airport Elevation : -11 ft
- IATA code : AMS


EHAM - Amsterdam Schiphol

CURRENT METAR :
  • 260425Z 13008KT CAVOK 13/12 Q1015 NOSIG

EXPIRED METARs :
  • 260355Z 13009KT CAVOK 13/12 Q1015 NOSIG
  • 260325Z 12009KT CAVOK 13/12 Q1015 NOSIG
  • 260255Z 13009KT CAVOK 13/11 Q1015 NOSIG
  • 260225Z 13008KT CAVOK 13/11 Q1016 NOSIG
  • 260155Z 13007KT CAVOK 13/10 Q1016 NOSIG
  • 260125Z 12004KT CAVOK 11/10 Q1016 NOSIG
  • 260055Z 13003KT CAVOK 11/10 Q1016 NOSIG
  • 260025Z 11004KT CAVOK 11/10 Q1016 NOSIG
  • 252355Z 14007KT CAVOK 12/11 Q1016 NOSIG

TAF TAF EHAM
Valid from the 26 at 00:00 until the 27 at 06:00 UTC


252306Z 2600/2706 14006KT CAVOK
BECMG 2610/2613 19010KT
TEMPO 2611/2618 6000 SHRA SCT040CB
PROB30
TEMPO 2611/2618 21017G27KT 4000 SHRA TSRA SCT030CB
BECMG 2615/2618 23008KT



MET'MAP, your aeronautical weather chart ! - Copyright ORBIFLY December 2007 - Disclaimer

ORBIFLY MET'MAP TEAM :

Programming & Development : Alexandra Zaïnal
Original concept : Baudouin d'Aumeries
Technical & hardware support : Manuel Goepfert
Assistance : Marc-Olivier Méhu




SOURCES & CREDITS :

   NOAA